Time;durP1;ratioP1;P1;durP2;ratioP2;P2;SDS_P1;SDS_P2;PMS_P1;PMS_P2;Temp;Humidity;BMP_temperature;BMP_pressure;BME280_temperature;BME280_humidity;BME280_pressure;Samples;Min_cycle;Max_cycle;Signal;HPM_P1;HPM_P2
2022/10/05 00:01:31;;;;;;;8.63;3.27;;;19.70;67.50;;;;;;6251497;23;20199;-92
2022/10/05 00:04:06;;;;;;;10.83;4.30;;;19.70;67.70;;;;;;6255005;23;20198;-94
2022/10/05 00:06:40;;;;;;;11.27;4.47;;;19.70;67.70;;;;;;6252648;23;20198;-91
2022/10/05 00:09:19;;;;;;;7.90;3.67;;;19.60;67.80;;;;;;6252117;23;20585;-93
2022/10/05 00:11:47;;;;;;;7.43;3.57;;;19.70;68.00;;;;;;6253346;23;20222;-95
2022/10/05 00:14:18;;;;;;;6.07;3.23;;;19.60;67.70;;;;;;6258180;23;20550;-92
2022/10/05 00:16:51;;;;;;;9.13;3.90;;;19.60;68.10;;;;;;6256316;23;20164;-93
2022/10/05 00:19:22;;;;;;;8.73;3.47;;;19.60;68.20;;;;;;6252124;23;20179;-93
2022/10/05 00:21:52;;;;;;;8.90;3.63;;;19.60;68.20;;;;;;6253640;23;20206;-92
2022/10/05 00:24:21;;;;;;;9.00;4.03;;;19.60;68.20;;;;;;6252384;23;20501;-95
2022/10/05 00:26:55;;;;;;;9.30;4.07;;;19.50;68.80;;;;;;6255766;23;20178;-91
2022/10/05 00:30:01;;;;;;;9.23;4.07;;;19.60;68.30;;;;;;6251205;23;20176;-91
2022/10/05 00:32:31;;;;;;;10.50;4.07;;;19.50;68.20;;;;;;6228957;23;20237;-92
2022/10/05 00:35:01;;;;;;;10.23;3.97;;;19.50;68.20;;;;;;6250123;23;20178;-94
2022/10/05 00:37:29;;;;;;;8.83;3.83;;;19.50;68.40;;;;;;6252784;23;20641;-93
2022/10/05 00:40:11;;;;;;;10.13;4.27;;;19.50;68.50;;;;;;6250993;23;20175;-92
2022/10/05 00:42:48;;;;;;;8.40;4.17;;;19.50;68.80;;;;;;6248173;23;20634;-92
2022/10/05 00:45:26;;;;;;;10.87;4.57;;;19.50;69.00;;;;;;6248131;23;20173;-93
2022/10/05 00:48:31;;;;;;;14.77;6.17;;;19.50;69.00;;;;;;6249310;23;20175;-94
2022/10/05 00:51:10;;;;;;;12.57;4.93;;;19.50;69.20;;;;;;6251895;23;20282;-93
2022/10/05 00:53:53;;;;;;;6.77;3.83;;;19.50;69.00;;;;;;6252485;23;20200;-92
2022/10/05 00:56:38;;;;;;;9.13;3.97;;;19.50;69.00;;;;;;6252297;23;20213;-91
2022/10/05 00:59:20;;;;;;;7.57;3.97;;;19.50;69.00;;;;;;6248419;23;20166;-93
2022/10/05 01:02:07;;;;;;;;;;;;;;;;;;;;;
2022/10/05 01:04:46;;;;;;;8.77;4.63;;;19.50;69.00;;;;;;6243794;23;20321;-91
2022/10/05 01:07:25;;;;;;;16.07;6.97;;;19.40;69.10;;;;;;6244317;23;20532;-93
2022/10/05 01:10:00;;;;;;;9.20;4.37;;;19.40;69.20;;;;;;6243835;23;20178;-92
2022/10/05 01:12:38;;;;;;;11.03;5.03;;;19.40;69.10;;;;;;6245303;23;20898;-92
2022/10/05 01:15:16;;;;;;;7.47;3.87;;;19.40;69.40;;;;;;6265463;22;20171;-93
2022/10/05 01:17:49;;;;;;;11.40;4.43;;;19.40;69.40;;;;;;6249857;23;20685;-91
2022/10/05 01:20:29;;;;;;;11.47;4.50;;;19.40;69.30;;;;;;6246548;23;20163;-90
2022/10/05 01:26:55;;;;;;;6.90;3.60;;;19.40;69.50;;;;;;6218871;23;20179;-94
2022/10/05 01:29:33;;;;;;;11.87;4.93;;;19.40;69.50;;;;;;6247568;23;20178;-92
2022/10/05 01:32:10;;;;;;;11.73;4.87;;;19.40;69.20;;;;;;6247338;23;20178;-92
2022/10/05 01:34:43;;;;;;;8.97;4.03;;;19.40;69.10;;;;;;6245314;23;20162;-91
2022/10/05 01:37:22;;;;;;;8.23;3.87;;;19.30;69.00;;;;;;6244764;23;20168;-92
2022/10/05 01:39:58;;;;;;;10.10;4.63;;;19.30;69.20;;;;;;6245621;23;20215;-91
2022/10/05 01:42:35;;;;;;;11.33;4.63;;;19.30;69.10;;;;;;6243458;23;20268;-91
2022/10/05 01:45:11;;;;;;;10.57;4.50;;;19.30;69.10;;;;;;6243639;23;20175;-91
2022/10/05 01:47:44;;;;;;;6.40;3.53;;;19.30;68.90;;;;;;6249434;23;20251;-93
2022/10/05 01:50:20;;;;;;;4.67;2.67;;;19.30;68.70;;;;;;6243319;23;20164;-91
2022/10/05 01:53:05;;;;;;;8.47;4.10;;;19.20;68.70;;;;;;6244010;23;20158;-93
2022/10/05 01:56:10;;;;;;;10.57;4.23;;;19.20;68.70;;;;;;6243558;23;20223;-95
2022/10/05 01:58:51;;;;;;;10.23;4.57;;;19.20;68.80;;;;;;6243733;23;20635;-93
2022/10/05 02:04:28;;;;;;;12.53;4.37;;;19.20;68.70;;;;;;6255462;22;20232;-92
2022/10/05 02:07:04;;;;;;;9.80;4.50;;;19.20;68.70;;;;;;6259647;22;20178;-93
2022/10/05 02:09:38;;;;;;;12.20;4.63;;;19.20;68.70;;;;;;6256723;23;20221;-92
2022/10/05 02:15:12;;;;;;;10.87;3.90;;;19.10;68.80;;;;;;6248159;23;20246;-92
2022/10/05 02:17:45;;;;;;;6.43;3.13;;;19.10;68.60;;;;;;6248189;23;20175;-92
2022/10/05 02:20:25;;;;;;;8.73;4.00;;;19.10;68.70;;;;;;6246510;23;20176;-90
2022/10/05 02:22:54;;;;;;;8.90;3.63;;;19.20;68.80;;;;;;6245669;23;20249;-92
2022/10/05 02:25:29;;;;;;;9.40;3.50;;;19.10;68.70;;;;;;6244769;23;20195;-91
2022/10/05 02:28:05;;;;;;;16.87;5.63;;;19.10;68.70;;;;;;6245412;23;20200;-93
2022/10/05 02:30:37;;;;;;;7.97;3.37;;;19.10;68.70;;;;;;6248172;23;20175;-91
2022/10/05 02:33:13;;;;;;;8.10;3.17;;;19.10;68.70;;;;;;6248249;23;20194;-92
2022/10/05 02:36:02;;;;;;;4.77;2.03;;;19.10;68.80;;;;;;6246438;23;20167;-94
2022/10/05 02:38:40;;;;;;;5.00;2.27;;;19.10;68.80;;;;;;6207148;23;20267;-92
2022/10/05 02:41:21;;;;;;;7.73;2.77;;;19.10;68.90;;;;;;6246616;23;20179;-94
2022/10/05 02:44:00;;;;;;;7.57;3.13;;;19.10;68.90;;;;;;6263010;23;20200;-96
2022/10/05 02:46:51;;;;;;;6.67;2.70;;;19.10;68.80;;;;;;6260448;23;20182;-92
2022/10/05 02:49:27;;;;;;;8.50;3.30;;;19.10;68.80;;;;;;6254636;23;20203;-91
2022/10/05 02:52:03;;;;;;;9.03;3.47;;;19.10;68.90;;;;;;6261349;23;20171;-93
2022/10/05 02:54:43;;;;;;;9.30;3.40;;;19.00;68.80;;;;;;6251893;23;20174;-89
2022/10/05 02:57:24;;;;;;;6.23;2.37;;;19.00;68.80;;;;;;6250204;23;20164;-92
2022/10/05 03:03:03;;;;;;;10.47;3.77;;;19.00;68.50;;;;;;6220835;23;20202;-94
2022/10/05 03:11:43;;;;;;;7.97;2.97;;;19.00;68.70;;;;;;6240739;23;20184;-93
2022/10/05 03:14:26;;;;;;;12.77;4.37;;;19.00;68.60;;;;;;6244826;23;20171;-93
2022/10/05 03:17:06;;;;;;;8.00;3.00;;;19.00;68.60;;;;;;6242176;23;20175;-91
2022/10/05 03:23:00;;;;;;;7.43;3.07;;;19.00;68.70;;;;;;6230917;23;20219;-93
2022/10/05 03:26:02;;;;;;;8.90;3.10;;;19.00;68.70;;;;;;6248946;23;20265;-95
2022/10/05 03:28:54;;;;;;;10.03;3.60;;;19.00;68.80;;;;;;6259930;22;20186;-92
2022/10/05 03:31:29;;;;;;;8.67;3.07;;;19.00;68.70;;;;;;6257180;22;20176;-94
2022/10/05 03:34:04;;;;;;;5.80;2.27;;;19.00;68.70;;;;;;6248192;23;20178;-91
2022/10/05 03:36:40;;;;;;;6.23;2.43;;;19.00;68.60;;;;;;6247618;23;20174;-91
2022/10/05 03:39:14;;;;;;;9.53;3.03;;;19.00;68.80;;;;;;6246798;23;20785;-93
2022/10/05 03:44:49;;;;;;;6.37;2.40;;;19.00;68.80;;;;;;6246180;23;20183;-93
2022/10/05 03:47:56;;;;;;;3.43;1.80;;;19.00;68.80;;;;;;6246203;23;20900;-94
2022/10/05 03:50:36;;;;;;;10.60;2.80;;;19.00;68.90;;;;;;6246962;23;20245;-92
2022/10/05 03:53:10;;;;;;;5.90;2.27;;;19.00;68.80;;;;;;6249045;23;20192;-91
2022/10/05 03:55:45;;;;;;;3.60;1.73;;;19.00;68.90;;;;;;6247402;23;20179;-90
2022/10/05 03:58:17;;;;;;;9.57;3.50;;;19.00;68.90;;;;;;6246130;23;20177;-92
2022/10/05 04:00:48;;;;;;;7.23;2.67;;;19.00;68.90;;;;;;6246866;23;20174;-93
2022/10/05 04:06:11;;;;;;;8.20;2.70;;;19.00;69.00;;;;;;6243666;23;20249;-91
2022/10/05 04:08:46;;;;;;;10.90;3.43;;;19.00;69.10;;;;;;6256148;23;20170;-92
2022/10/05 04:11:22;;;;;;;6.70;2.60;;;19.00;69.10;;;;;;6244766;23;20174;-93
2022/10/05 04:13:57;;;;;;;8.53;3.20;;;19.00;69.10;;;;;;6243524;23;20175;-92
2022/10/05 04:16:29;;;;;;;10.33;3.30;;;18.90;69.10;;;;;;6246671;23;20167;-92
2022/10/05 04:19:01;;;;;;;10.63;4.07;;;19.00;69.20;;;;;;6252102;23;20227;-92
2022/10/05 04:21:52;;;;;;;12.20;4.37;;;19.00;69.10;;;;;;6243743;23;20614;-91
2022/10/05 04:24:24;;;;;;;5.77;2.30;;;19.00;69.30;;;;;;6247917;23;20187;-91
2022/10/05 04:27:03;;;;;;;7.40;2.97;;;19.00;69.30;;;;;;6248118;23;20212;-92
2022/10/05 04:29:38;;;;;;;6.33;2.97;;;19.00;69.50;;;;;;6256273;23;20169;-92
2022/10/05 04:32:24;;;;;;;7.00;3.03;;;19.00;69.50;;;;;;6255469;23;20555;-93
2022/10/05 04:35:05;;;;;;;8.50;3.30;;;19.00;69.50;;;;;;6246397;23;20175;-90
2022/10/05 04:37:40;;;;;;;6.43;2.67;;;19.00;69.60;;;;;;6224296;23;20206;-93
2022/10/05 04:40:23;;;;;;;10.50;4.20;;;19.10;69.70;;;;;;6242622;23;20194;-91
2022/10/05 04:43:02;;;;;;;10.17;4.00;;;19.00;69.60;;;;;;6243927;23;20184;-90
2022/10/05 04:45:42;;;;;;;6.03;2.47;;;19.00;69.60;;;;;;6246900;23;20170;-92
2022/10/05 04:48:39;;;;;;;10.40;3.60;;;19.00;69.70;;;;;;6247041;23;20194;-90
2022/10/05 04:51:58;;;;;;;10.20;3.73;;;19.00;69.70;;;;;;6246137;23;20178;-92
2022/10/05 04:55:06;;;;;;;7.27;2.60;;;19.00;69.60;;;;;;6247855;23;20652;-94
2022/10/05 04:57:48;;;;;;;6.83;2.80;;;19.00;69.70;;;;;;6177301;23;20580;-91
2022/10/05 05:00:23;;;;;;;10.77;3.83;;;19.00;69.60;;;;;;6245876;23;20652;-91
2022/10/05 05:03:15;;;;;;;8.30;3.13;;;19.00;69.70;;;;;;6246432;23;20205;-91
2022/10/05 05:05:58;;;;;;;10.57;4.10;;;19.00;69.90;;;;;;6247636;23;20222;-93
2022/10/05 05:08:41;;;;;;;7.73;2.87;;;19.00;69.90;;;;;;6246226;23;20209;-91
2022/10/05 05:11:25;;;;;;;8.20;3.20;;;19.00;69.80;;;;;;6247657;23;20639;-91
2022/10/05 05:14:41;;;;;;;6.63;2.93;;;19.00;69.70;;;;;;6251850;23;20171;-92
2022/10/05 05:17:24;;;;;;;11.30;4.13;;;19.00;69.70;;;;;;6183078;22;20206;-92
2022/10/05 05:22:57;;;;;;;5.57;2.50;;;19.10;69.70;;;;;;6237214;23;20199;-93
2022/10/05 05:25:58;;;;;;;10.33;3.67;;;19.10;69.80;;;;;;6247055;23;20169;-91
2022/10/05 05:28:35;;;;;;;5.90;2.70;;;19.10;69.80;;;;;;6245581;23;20171;-89
2022/10/05 05:31:10;;;;;;;8.30;3.13;;;19.10;69.80;;;;;;6245280;23;20170;-90
2022/10/05 05:33:50;;;;;;;14.53;4.97;;;19.10;69.70;;;;;;6245126;23;20171;-92
2022/10/05 05:36:32;;;;;;;18.87;5.43;;;19.10;69.70;;;;;;6241589;23;20316;-90
2022/10/05 05:39:20;;;;;;;11.40;3.83;;;19.10;69.70;;;;;;6241920;23;20159;-92
2022/10/05 05:41:59;;;;;;;8.50;3.27;;;19.10;69.80;;;;;;6249766;23;20237;-92
2022/10/05 05:44:34;;;;;;;7.80;3.30;;;19.20;69.80;;;;;;6260635;22;20357;-91
2022/10/05 05:47:20;;;;;;;4.80;2.20;;;19.10;69.60;;;;;;6248182;23;20185;-92
2022/10/05 05:50:26;;;;;;;5.93;2.77;;;19.10;69.70;;;;;;6248440;23;20181;-92
2022/10/05 05:53:01;;;;;;;9.83;3.33;;;19.10;69.80;;;;;;6246825;23;20225;-91
2022/10/05 05:55:33;;;;;;;7.77;3.40;;;19.10;69.80;;;;;;6244938;23;20220;-90
2022/10/05 05:58:23;;;;;;;9.43;3.90;;;19.10;69.70;;;;;;6244267;23;20175;-90
2022/10/05 06:00:54;;;;;;;13.23;4.97;;;19.10;69.80;;;;;;6245348;23;20202;-91
2022/10/05 06:03:27;;;;;;;8.97;3.53;;;19.10;69.70;;;;;;6241978;23;20217;-92
2022/10/05 06:05:59;;;;;;;17.63;6.23;;;19.10;69.70;;;;;;6240090;23;20734;-89
2022/10/05 06:08:34;;;;;;;11.30;4.40;;;19.10;69.80;;;;;;6239822;23;20166;-92
2022/10/05 06:11:08;;;;;;;16.80;5.47;;;19.10;69.70;;;;;;6237488;23;20217;-93
2022/10/05 06:13:38;;;;;;;15.30;5.77;;;19.10;69.70;;;;;;6239150;23;20173;-89
2022/10/05 06:16:18;;;;;;;14.63;5.53;;;19.10;69.70;;;;;;6238130;23;20239;-89
2022/10/05 06:18:50;;;;;;;14.63;5.23;;;19.10;69.70;;;;;;6238966;23;20183;-89
2022/10/05 06:21:34;;;;;;;10.03;3.97;;;19.10;69.70;;;;;;6243465;23;20174;-92
2022/10/05 06:24:08;;;;;;;13.40;4.80;;;19.10;69.80;;;;;;6242254;23;20269;-91
2022/10/05 06:27:14;;;;;;;11.73;4.63;;;19.10;69.70;;;;;;6241633;23;20250;-93
2022/10/05 06:29:57;;;;;;;14.60;4.97;;;19.00;69.70;;;;;;6241734;23;20174;-90
2022/10/05 06:32:32;;;;;;;11.20;3.97;;;19.10;69.80;;;;;;6242801;23;20620;-93
2022/10/05 06:35:10;;;;;;;8.20;3.30;;;19.10;69.70;;;;;;6243686;23;20174;-89
2022/10/05 06:38:10;;;;;;;12.60;4.37;;;19.00;69.70;;;;;;6246663;23;20167;-91
2022/10/05 06:40:53;;;;;;;11.83;4.10;;;19.00;69.70;;;;;;6243145;23;20203;-91
2022/10/05 06:43:36;;;;;;;17.10;5.73;;;19.10;69.80;;;;;;6241651;23;20656;-91
2022/10/05 06:46:24;;;;;;;8.67;3.40;;;19.00;69.60;;;;;;6241274;23;20722;-90
2022/10/05 06:49:11;;;;;;;7.93;2.67;;;19.00;69.60;;;;;;6240453;23;20564;-91
2022/10/05 06:51:49;;;;;;;5.50;2.20;;;19.00;69.50;;;;;;6242263;23;20597;-88
2022/10/05 06:54:35;;;;;;;7.63;3.10;;;19.00;69.50;;;;;;6244978;23;20166;-94
2022/10/05 06:57:08;;;;;;;7.90;3.03;;;19.00;69.40;;;;;;6242188;23;20171;-89
2022/10/05 06:59:46;;;;;;;13.03;4.60;;;19.00;69.30;;;;;;6241286;23;20674;-89
2022/10/05 07:02:25;;;;;;;12.00;4.00;;;19.10;69.60;;;;;;6244403;23;20169;-90
2022/10/05 07:05:22;;;;;;;7.93;3.03;;;19.10;69.50;;;;;;6249393;23;20202;-90
2022/10/05 07:07:55;;;;;;;11.03;4.10;;;19.10;69.60;;;;;;6246037;23;20608;-90
2022/10/05 07:10:43;;;;;;;7.17;2.97;;;19.10;69.70;;;;;;6243237;23;20171;-88
2022/10/05 07:13:50;;;;;;;15.33;5.20;;;19.10;69.80;;;;;;6243103;23;20197;-90
2022/10/05 07:16:27;;;;;;;9.23;3.90;;;19.10;69.80;;;;;;6242938;23;20480;-89
2022/10/05 07:19:08;;;;;;;10.57;3.97;;;19.10;69.80;;;;;;6241712;23;20222;-90
2022/10/05 07:21:59;;;;;;;14.20;4.80;;;19.10;69.80;;;;;;6240190;23;20550;-89
2022/10/05 07:24:33;;;;;;;11.37;3.80;;;19.10;70.00;;;;;;6246915;23;20218;-89
2022/10/05 07:27:12;;;;;;;13.60;3.80;;;19.10;69.80;;;;;;6248978;23;20169;-92
2022/10/05 07:29:55;;;;;;;9.97;3.87;;;19.10;69.80;;;;;;6248715;23;20225;-90
2022/10/05 07:32:34;;;;;;;7.70;3.00;;;19.10;70.00;;;;;;6242741;23;20261;-89
2022/10/05 07:37:53;;;;;;;9.40;3.53;;;19.10;70.00;;;;;;6245142;23;20178;-89
2022/10/05 07:38:04;;;;;;;10.20;3.90;;;19.10;70.00;;;;;;6238984;23;20186;-90
2022/10/05 07:40:38;;;;;;;7.77;2.90;;;19.10;69.80;;;;;;6241597;23;20854;-90
2022/10/05 07:43:26;;;;;;;9.10;3.53;;;19.10;69.80;;;;;;6244384;23;20458;-92
2022/10/05 07:46:02;;;;;;;13.30;4.63;;;19.10;69.90;;;;;;6242185;23;20198;-88
2022/10/05 07:48:36;;;;;;;6.40;2.47;;;19.10;69.90;;;;;;6242432;23;20178;-92
2022/10/05 07:51:21;;;;;;;8.27;3.27;;;19.10;69.90;;;;;;6243670;23;20171;-91
2022/10/05 07:54:04;;;;;;;8.53;2.30;;;19.10;69.70;;;;;;6249302;23;20244;-91
2022/10/05 07:56:38;;;;;;;11.87;4.57;;;19.10;69.50;;;;;;6249665;23;20178;-91
2022/10/05 07:59:45;;;;;;;8.40;3.40;;;19.20;69.60;;;;;;6263540;22;20183;-90
2022/10/05 08:02:29;;;;;;;6.57;2.63;;;19.20;69.50;;;;;;6253838;23;20181;-89
2022/10/05 08:05:02;;;;;;;5.33;2.37;;;19.20;69.50;;;;;;6246919;23;20250;-90
2022/10/05 08:07:40;;;;;;;4.70;2.03;;;19.20;69.60;;;;;;6244687;23;20160;-90
2022/10/05 08:10:23;;;;;;;9.53;3.30;;;19.20;69.60;;;;;;6247580;23;20167;-91
2022/10/05 08:13:19;;;;;;;8.40;2.83;;;19.20;69.70;;;;;;6245379;23;20172;-90
2022/10/05 08:16:02;;;;;;;5.63;2.33;;;19.20;69.50;;;;;;6246209;23;20601;-92
2022/10/05 08:18:47;;;;;;;8.17;2.90;;;19.20;69.50;;;;;;6247576;23;20191;-91
2022/10/05 08:21:19;;;;;;;7.83;3.07;;;19.20;69.50;;;;;;6252703;23;20543;-92
2022/10/05 08:23:52;;;;;;;12.80;3.67;;;19.30;69.60;;;;;;6251498;23;20186;-91
2022/10/05 08:26:35;;;;;;;7.97;2.97;;;19.30;69.80;;;;;;6245788;23;20261;-91
2022/10/05 08:29:13;;;;;;;6.67;2.37;;;19.30;69.90;;;;;;6246265;23;20176;-92
2022/10/05 08:31:47;;;;;;;4.87;2.13;;;19.30;69.90;;;;;;6245449;23;20171;-91
2022/10/05 08:34:44;;;;;;;10.50;3.57;;;19.30;70.70;;;;;;6243786;23;20172;-90
2022/10/05 08:37:17;;;;;;;12.60;3.63;;;19.30;69.90;;;;;;6244905;23;20232;-90
2022/10/05 08:47:04;;;;;;;14.43;4.87;;;19.40;70.30;;;;;;6214121;23;20619;-94
2022/10/05 08:53:26;;;;;;;8.70;3.20;;;19.40;70.50;;;;;;6254594;23;20187;-95
2022/10/05 08:56:37;;;;;;;7.30;2.87;;;19.30;70.70;;;;;;6251739;23;20225;-94
2022/10/05 09:11:21;;;;;;;8.07;3.23;;;19.40;71.20;;;;;;6250479;22;20238;-91
2022/10/05 09:14:43;;;;;;;11.40;4.30;;;19.40;71.40;;;;;;6248749;23;20256;-96
2022/10/05 09:20:52;;;;;;;10.10;4.00;;;19.50;71.70;;;;;;6040213;23;20231;-93
2022/10/05 09:23:41;;;;;;;11.03;3.33;;;19.50;71.70;;;;;;6075269;23;20260;-95
2022/10/05 09:26:43;;;;;;;8.30;3.27;;;19.50;71.80;;;;;;6252200;23;20233;-95
2022/10/05 09:29:47;;;;;;;9.03;3.73;;;19.50;71.90;;;;;;6254348;23;20962;-96
2022/10/05 09:33:01;;;;;;;9.77;3.43;;;19.50;72.00;;;;;;6255676;23;20537;-94
2022/10/05 09:46:06;;;;;;;9.77;3.97;;;19.60;72.00;;;;;;6254379;23;20484;-94
2022/10/05 09:49:11;;;;;;;11.03;4.07;;;19.60;71.70;;;;;;6129131;23;20206;-96
2022/10/05 09:55:47;;;;;;;10.03;3.47;;;19.60;72.10;;;;;;6046311;23;20250;-96
2022/10/05 10:02:08;;;;;;;11.27;4.23;;;19.60;71.90;;;;;;5933813;24;20257;-96
2022/10/05 10:15:08;;;;;;;8.40;3.43;;;19.80;72.10;;;;;;5932323;24;20247;-95
2022/10/05 10:18:11;;;;;;;10.27;4.07;;;19.80;72.00;;;;;;5932461;24;20181;-96
2022/10/05 10:24:36;;;;;;;6.43;2.80;;;19.90;71.30;;;;;;6151427;23;20202;-96
2022/10/05 10:27:26;;;;;;;8.77;3.43;;;19.90;71.30;;;;;;6240437;22;20211;-95
2022/10/05 10:30:32;;;;;;;8.27;3.13;;;19.90;71.30;;;;;;6252948;23;20176;-94
2022/10/05 10:37:17;;;;;;;14.27;4.60;;;20.00;71.50;;;;;;6250503;22;20235;-95
2022/10/05 10:43:50;;;;;;;6.67;3.20;;;20.10;71.30;;;;;;6216138;22;20195;-96
2022/10/05 10:47:17;;;;;;;6.90;2.47;;;20.10;71.30;;;;;;6133911;23;20201;-96
2022/10/05 10:52:41;;;;;;;6.10;2.97;;;20.20;70.80;;;;;;6256211;22;20203;-94
2022/10/05 10:55:38;;;;;;;10.70;3.87;;;20.20;70.50;;;;;;6264659;23;20637;-90
2022/10/05 10:58:42;;;;;;;12.43;4.17;;;20.30;70.60;;;;;;6234884;23;20825;-92
2022/10/05 11:01:34;;;;;;;5.13;2.57;;;20.30;70.00;;;;;;6260393;23;20171;-92
2022/10/05 11:04:43;;;;;;;6.87;2.87;;;20.30;69.80;;;;;;6265086;23;20214;-92
2022/10/05 11:07:54;;;;;;;11.43;3.97;;;20.40;70.80;;;;;;6266557;23;20159;-91
2022/10/05 11:11:02;;;;;;;5.17;2.13;;;20.40;70.90;;;;;;6265379;23;20504;-90
2022/10/05 11:14:04;;;;;;;7.67;2.40;;;20.40;69.80;;;;;;6226802;23;20167;-92
2022/10/05 11:17:14;;;;;;;6.10;2.23;;;20.50;69.80;;;;;;6250215;23;20171;-90
2022/10/05 11:20:11;;;;;;;8.60;3.30;;;20.50;69.30;;;;;;6247396;23;20195;-91
2022/10/05 11:22:56;;;;;;;5.17;1.97;;;20.50;69.10;;;;;;6221125;23;20231;-95
2022/10/05 11:25:53;;;;;;;9.50;3.70;;;20.50;69.10;;;;;;6254277;23;20250;-91
2022/10/05 11:28:54;;;;;;;8.37;3.40;;;20.50;69.70;;;;;;6245636;23;20163;-90
2022/10/05 11:32:14;;;;;;;13.33;4.97;;;20.50;69.10;;;;;;6243630;23;20234;-91
2022/10/05 11:35:19;;;;;;;5.30;2.10;;;20.60;69.00;;;;;;6268102;23;20160;-94
2022/10/05 11:38:10;;;;;;;12.37;4.40;;;20.60;68.50;;;;;;6262632;23;20184;-91
2022/10/05 11:41:03;;;;;;;12.80;3.87;;;20.60;68.50;;;;;;6250699;23;20176;-90
2022/10/05 11:44:12;;;;;;;14.30;3.37;;;20.60;68.40;;;;;;6243229;23;20555;-89
2022/10/05 11:46:48;;;;;;;8.47;2.37;;;20.60;68.20;;;;;;6245382;23;20194;-87
2022/10/05 11:49:33;;;;;;;11.23;3.77;;;20.60;68.40;;;;;;6246325;23;20681;-92
2022/10/05 11:52:11;;;;;;;7.57;3.23;;;20.60;68.10;;;;;;6247375;23;20190;-89
2022/10/05 11:55:18;;;;;;;5.57;2.07;;;20.60;68.20;;;;;;6247661;23;20168;-89
2022/10/05 11:57:56;;;;;;;9.40;3.70;;;20.60;68.20;;;;;;6242930;23;20170;-91
2022/10/05 12:00:24;;;;;;;7.03;2.97;;;20.60;68.30;;;;;;6243051;23;20227;-88
2022/10/05 12:03:26;;;;;;;11.20;3.93;;;20.60;68.30;;;;;;6242504;23;20215;-88
2022/10/05 12:06:22;;;;;;;11.77;3.37;;;20.60;68.00;;;;;;6243211;23;20191;-91
2022/10/05 12:09:03;;;;;;;9.50;3.03;;;20.60;67.90;;;;;;6243182;23;20621;-88
2022/10/05 12:11:53;;;;;;;6.53;2.50;;;20.60;67.80;;;;;;6243903;23;20270;-90
2022/10/05 12:14:33;;;;;;;18.10;5.00;;;20.60;67.80;;;;;;6240862;23;20164;-89
2022/10/05 12:17:14;;;;;;;7.17;2.70;;;20.60;67.80;;;;;;6241413;23;20202;-90
2022/10/05 12:19:53;;;;;;;9.50;3.73;;;20.60;67.90;;;;;;6242553;23;20168;-89
2022/10/05 12:22:24;;;;;;;7.43;2.57;;;20.60;67.40;;;;;;6242274;23;20246;-91
2022/10/05 12:25:11;;;;;;;8.53;3.20;;;20.60;67.30;;;;;;6241798;23;20222;-90
2022/10/05 12:27:45;;;;;;;6.83;2.73;;;20.60;67.30;;;;;;6243519;23;20175;-91
2022/10/05 12:30:18;;;;;;;8.23;3.00;;;20.60;67.20;;;;;;6243757;23;20167;-88
2022/10/05 12:32:56;;;;;;;6.47;2.83;;;20.60;67.30;;;;;;6245120;23;20168;-89
2022/10/05 12:38:35;;;;;;;11.83;4.20;;;20.60;67.40;;;;;;6206318;23;20639;-93
2022/10/05 12:41:23;;;;;;;5.27;3.13;;;20.60;67.30;;;;;;6220963;23;20526;-91
2022/10/05 12:44:06;;;;;;;5.77;2.60;;;20.60;67.40;;;;;;6248227;23;20490;-89
2022/10/05 12:46:46;;;;;;;7.17;3.00;;;20.60;66.90;;;;;;6246197;23;20170;-91
2022/10/05 12:49:39;;;;;;;9.00;3.57;;;20.60;66.90;;;;;;6245171;23;20898;-90
2022/10/05 12:52:15;;;;;;;9.73;3.33;;;20.60;67.10;;;;;;6230151;23;20646;-90
2022/10/05 12:54:49;;;;;;;6.30;2.73;;;20.60;67.40;;;;;;6245550;23;20198;-91
2022/10/05 12:57:28;;;;;;;10.50;4.10;;;20.70;67.40;;;;;;6243263;23;20625;-88
2022/10/05 13:00:02;;;;;;;9.30;3.40;;;20.70;67.60;;;;;;6244055;23;20167;-93
2022/10/05 13:02:41;;;;;;;7.70;2.80;;;20.80;67.60;;;;;;6245440;23;20181;-90
2022/10/05 13:05:28;;;;;;;6.03;2.53;;;20.80;67.40;;;;;;6243885;23;20742;-93
2022/10/05 13:08:20;;;;;;;12.10;3.40;;;20.80;67.30;;;;;;6242936;23;20164;-89
2022/10/05 13:10:58;;;;;;;7.43;2.57;;;20.90;67.50;;;;;;6241324;23;20171;-90
2022/10/05 13:14:06;;;;;;;9.57;3.27;;;21.00;66.80;;;;;;6243845;23;20162;-91
2022/10/05 13:16:41;;;;;;;8.70;3.00;;;21.10;66.90;;;;;;6245960;23;20174;-90
2022/10/05 13:19:27;;;;;;;8.43;3.47;;;21.10;66.70;;;;;;6243162;23;20171;-89
2022/10/05 13:22:10;;;;;;;8.60;3.60;;;21.10;66.10;;;;;;6243359;23;20659;-92
2022/10/05 13:24:45;;;;;;;4.93;2.33;;;21.20;66.10;;;;;;6244059;23;20267;-90
2022/10/05 13:27:18;;;;;;;7.23;2.23;;;21.20;66.10;;;;;;6244207;23;20174;-89
2022/10/05 13:33:22;;;;;;;13.27;4.93;;;21.30;66.20;;;;;;6236195;22;20273;-96
2022/10/05 13:35:58;;;;;;;7.40;2.97;;;21.30;66.20;;;;;;6243452;23;20163;-93
2022/10/05 13:38:41;;;;;;;10.70;3.20;;;21.40;66.20;;;;;;6215851;23;20578;-92
2022/10/05 13:41:18;;;;;;;5.20;2.63;;;21.50;66.10;;;;;;6244357;23;20181;-91
2022/10/05 13:43:57;;;;;;;7.23;3.13;;;21.60;66.10;;;;;;6241225;23;20567;-90
2022/10/05 13:46:45;;;;;;;8.67;3.60;;;21.60;65.40;;;;;;6244113;23;20673;-93
2022/10/05 13:49:25;;;;;;;11.23;3.97;;;21.60;64.80;;;;;;6244453;23;20595;-91
2022/10/05 13:52:16;;;;;;;8.83;3.70;;;21.70;65.00;;;;;;6245126;23;20163;-91
2022/10/05 13:55:30;;;;;;;7.70;3.33;;;21.70;64.40;;;;;;6241875;23;20613;-93
2022/10/05 13:58:04;;;;;;;7.87;3.23;;;21.70;64.50;;;;;;6243630;23;20175;-92
2022/10/05 14:00:37;;;;;;;7.53;3.07;;;21.70;64.70;;;;;;6246839;23;20182;-91
2022/10/05 14:03:39;;;;;;;7.00;2.57;;;21.70;64.70;;;;;;6246590;23;20233;-90
2022/10/05 14:06:13;;;;;;;10.00;4.03;;;21.70;64.20;;;;;;6244807;23;20209;-91
2022/10/05 14:08:58;;;;;;;9.00;3.63;;;21.60;64.60;;;;;;6247878;23;20163;-92
2022/10/05 14:11:50;;;;;;;7.27;3.17;;;21.70;64.50;;;;;;6248777;23;20171;-93
2022/10/05 14:14:27;;;;;;;9.63;2.77;;;21.70;64.20;;;;;;6247953;23;20176;-91
2022/10/05 14:19:58;;;;;;;11.37;3.50;;;21.70;64.60;;;;;;6172041;23;20175;-90
2022/10/05 14:22:27;;;;;;;6.10;2.70;;;21.70;64.50;;;;;;6242789;23;20179;-93
2022/10/05 14:28:04;;;;;;;9.13;3.57;;;21.60;64.50;;;;;;6260543;23;20194;-91
2022/10/05 14:30:32;;;;;;;6.33;2.83;;;21.70;64.40;;;;;;6266960;23;20182;-91
2022/10/05 14:33:17;;;;;;;5.70;2.23;;;21.60;64.60;;;;;;6265737;23;20179;-93
2022/10/05 14:35:57;;;;;;;10.70;3.40;;;21.60;64.20;;;;;;6268301;23;20174;-94
2022/10/05 14:38:28;;;;;;;8.70;3.37;;;21.60;65.30;;;;;;6269241;22;20167;-91
2022/10/05 14:41:15;;;;;;;13.07;4.67;;;21.60;64.60;;;;;;6264893;23;20176;-90
2022/10/05 14:43:54;;;;;;;7.20;3.10;;;21.60;64.60;;;;;;6266087;23;20182;-93
2022/10/05 14:46:37;;;;;;;11.67;3.63;;;21.60;64.60;;;;;;6266265;23;20197;-91
2022/10/05 14:52:41;;;;;;;8.17;3.63;;;21.60;64.90;;;;;;6254919;22;20225;-90
2022/10/05 14:55:33;;;;;;;11.47;4.20;;;21.60;64.60;;;;;;6233130;23;20186;-91
2022/10/05 14:58:27;;;;;;;8.00;2.90;;;21.60;64.80;;;;;;6265052;23;20171;-92
2022/10/05 15:01:42;;;;;;;12.63;4.17;;;21.60;64.80;;;;;;6263170;23;20190;-94
2022/10/05 15:04:41;;;;;;;6.20;2.40;;;21.60;65.10;;;;;;6221632;23;20222;-91
2022/10/05 15:10:28;;;;;;;16.13;5.20;;;21.60;65.10;;;;;;6219049;23;20180;-89
2022/10/05 15:12:58;;;;;;;7.67;3.53;;;21.60;64.90;;;;;;6251660;23;20171;-90
2022/10/05 15:15:41;;;;;;;13.97;5.03;;;21.60;65.20;;;;;;6241033;23;20237;-88
2022/10/05 15:18:18;;;;;;;9.70;3.30;;;21.60;65.20;;;;;;6241449;23;20171;-90
2022/10/05 15:20:55;;;;;;;8.23;3.10;;;21.60;66.00;;;;;;6245128;23;20246;-91
2022/10/05 15:23:29;;;;;;;11.33;4.00;;;21.60;65.20;;;;;;6214781;23;20180;-88
2022/10/05 15:26:13;;;;;;;4.13;2.03;;;21.70;65.30;;;;;;6242910;23;20308;-91
2022/10/05 15:28:47;;;;;;;5.73;2.83;;;21.70;65.30;;;;;;6240808;23;21001;-91
2022/10/05 15:31:25;;;;;;;8.67;3.07;;;21.60;65.30;;;;;;6241531;23;20194;-93
2022/10/05 15:34:14;;;;;;;15.27;5.13;;;21.60;65.40;;;;;;6242787;23;20540;-93
2022/10/05 15:36:51;;;;;;;4.00;2.20;;;21.70;65.40;;;;;;6244253;23;20179;-92
2022/10/05 15:39:40;;;;;;;8.57;3.37;;;21.70;66.40;;;;;;6245802;23;20692;-92
2022/10/05 15:42:45;;;;;;;8.87;3.13;;;21.70;65.60;;;;;;6242900;23;20171;-93
2022/10/05 15:45:30;;;;;;;9.67;3.63;;;21.60;65.60;;;;;;6242739;23;20203;-92
2022/10/05 15:48:06;;;;;;;9.13;3.60;;;21.70;65.70;;;;;;6244045;23;20233;-92
2022/10/05 15:50:55;;;;;;;8.83;4.00;;;21.70;65.80;;;;;;6243788;23;20702;-93
2022/10/05 15:54:39;;;;;;;9.87;3.97;;;21.70;65.90;;;;;;6242180;23;20206;-90
2022/10/05 15:56:56;;;;;;;9.23;3.97;;;21.70;66.00;;;;;;6248125;23;20200;-91
2022/10/05 15:59:54;;;;;;;6.40;2.70;;;21.70;65.90;;;;;;6249330;23;20494;-93
2022/10/05 16:09:11;;;;;;;11.27;4.03;;;21.70;66.10;;;;;;6245286;23;20178;-95
2022/10/05 16:11:57;;;;;;;6.40;2.93;;;21.70;66.10;;;;;;6242594;23;20220;-94
2022/10/05 16:14:55;;;;;;;10.47;4.30;;;21.70;66.20;;;;;;6242907;23;20493;-90